Terminal Aerodrome Forecast
Issued by NWS

Current Version | Previous Version | Text Only | Print | Product List | Glossary On
Versions: 1 2 3 4 5 6 7 8 9 10 11 12 13 14 15 16 17 18 19 20 21
184
FTUS45 KVEF 310537
TAFDAG
TAF
KDAG 310537Z 3106/0106 22014KT P6SM SCT150
     FM311000 26010KT P6SM SCT150
     FM311700 30012G20KT P6SM SCT120
     FM312300 25015G23KT P6SM SCT120 BKN250=

USA.gov is the U.S. government's official web portal to all federal, state and local government web resources and services.